Edisto Beach, South Carolina
Current Conditions -  °F | °C
As of 9:35 PM on Thursday 20 Nov 2014 (Local Time) from KJZI Reporting Station
Clear Clear  
Wind Chill: 54°   Ceiling: Unl
Heat Index: 54°   Visibility: 10mi
Dew Point: 45°   Wind: 8mph
Humidity: 72%   Direction: 220°SW
Pressure: 30.23"   Gusts: NA
Location:  32.5623°N, 80.3136°W
Report Text: KJZI 210235Z AUTO 22007KT 10SM CLR 12/07 A3023 RMK A02 P000
Loading
Personal Weather Stations






























Interactive Weather Map New forecast layout! Learn more

10-Day Weather Forecast

Advertisements
Track Severe Weather on mobile